Time;durP1;ratioP1;P1;durP2;ratioP2;P2;SDS_P1;SDS_P2;PMS_P1;PMS_P2;Temp;Humidity;BMP_temperature;BMP_pressure;BME280_temperature;BME280_humidity;BME280_pressure;Samples;Min_cycle;Max_cycle;Signal;HPM_P1;HPM_P2
2023/02/20 00:01:23;;;;;;;14.15;11.73;;;6.10;99.90;;;;;;7372972;19;20082;-74
2023/02/20 00:03:49;;;;;;;12.52;11.23;;;6.10;99.90;;;;;;7378423;19;20022;-71
2023/02/20 00:06:15;;;;;;;16.08;11.30;;;6.10;99.90;;;;;;7374775;19;20018;-71
2023/02/20 00:08:42;;;;;;;15.00;12.07;;;6.20;99.90;;;;;;7377401;19;20073;-71
2023/02/20 00:11:09;;;;;;;15.02;12.52;;;6.20;99.90;;;;;;7374722;19;20042;-71
2023/02/20 00:13:35;;;;;;;13.43;11.85;;;6.20;99.90;;;;;;7375712;19;20592;-71
2023/02/20 00:16:01;;;;;;;13.23;11.85;;;6.20;99.90;;;;;;7378481;19;20086;-71
2023/02/20 00:18:27;;;;;;;14.98;11.45;;;6.20;99.90;;;;;;7375497;19;20014;-71
2023/02/20 00:20:54;;;;;;;12.95;11.18;;;6.30;99.90;;;;;;7374434;19;20057;-71
2023/02/20 00:23:21;;;;;;;13.80;11.82;;;6.30;99.90;;;;;;7376229;19;20031;-74
2023/02/20 00:25:47;;;;;;;12.52;11.20;;;6.30;99.90;;;;;;7377563;19;20624;-74
2023/02/20 00:28:15;;;;;;;14.05;11.43;;;6.30;99.90;;;;;;7376222;19;20039;-74
2023/02/20 00:30:41;;;;;;;16.13;12.02;;;6.30;99.90;;;;;;7374956;19;20842;-74
2023/02/20 00:33:07;;;;;;;14.82;11.50;;;6.20;99.90;;;;;;7373585;19;20019;-74
2023/02/20 00:35:37;;;;;;;15.02;11.57;;;6.20;99.90;;;;;;7376116;19;20730;-74
2023/02/20 00:38:04;;;;;;;14.65;10.93;;;6.20;99.90;;;;;;7375922;19;20074;-74
2023/02/20 00:40:30;;;;;;;13.43;11.23;;;6.20;99.90;;;;;;7375954;19;20022;-73
2023/02/20 00:43:03;;;;;;;14.07;10.80;;;6.20;99.90;;;;;;7373541;19;20018;-74
2023/02/20 00:45:30;;;;;;;13.98;11.85;;;6.20;99.90;;;;;;7376320;19;20031;-74
2023/02/20 00:47:59;;;;;;;17.20;11.90;;;6.20;99.90;;;;;;7378398;19;20552;-74
2023/02/20 00:50:26;;;;;;;15.43;12.23;;;6.30;99.90;;;;;;7377442;19;20608;-74
2023/02/20 00:52:52;;;;;;;12.80;11.40;;;6.30;99.90;;;;;;7376968;19;20078;-74
2023/02/20 00:55:19;;;;;;;17.75;12.88;;;6.30;99.90;;;;;;7375372;19;20589;-75
2023/02/20 00:57:45;;;;;;;12.45;10.30;;;6.30;99.90;;;;;;7374150;19;20015;-74
2023/02/20 01:00:21;;;;;;;13.15;10.43;;;6.30;99.90;;;;;;7373426;19;20132;-71
2023/02/20 01:02:50;;;;;;;16.63;11.10;;;6.40;99.90;;;;;;7376427;19;20021;-74
2023/02/20 01:05:17;;;;;;;16.20;10.98;;;6.40;99.90;;;;;;7377973;19;20338;-74
2023/02/20 01:07:43;;;;;;;12.70;9.80;;;6.40;99.90;;;;;;7374879;19;20081;-74
2023/02/20 01:10:12;;;;;;;13.35;10.10;;;6.40;99.90;;;;;;7374438;19;20036;-74
2023/02/20 01:12:39;;;;;;;13.48;9.70;;;6.40;99.90;;;;;;7375387;19;20023;-71
2023/02/20 01:15:08;;;;;;;12.93;9.63;;;6.40;99.90;;;;;;7374018;19;20026;-73
2023/02/20 01:17:41;;;;;;;15.77;10.90;;;6.40;99.90;;;;;;7375821;19;20101;-74
2023/02/20 01:20:07;;;;;;;15.88;10.25;;;6.40;99.90;;;;;;7372436;19;20018;-74
2023/02/20 01:22:34;;;;;;;18.23;10.82;;;6.40;99.90;;;;;;7375388;19;20022;-74
2023/02/20 01:25:00;;;;;;;15.77;11.10;;;6.50;99.90;;;;;;7372905;19;20047;-74
2023/02/20 01:27:33;;;;;;;13.63;11.23;;;6.40;99.90;;;;;;7372917;19;20025;-71
2023/02/20 01:30:08;;;;;;;14.05;10.02;;;6.40;99.90;;;;;;7372872;19;20045;-71
2023/02/20 01:32:35;;;;;;;14.90;11.27;;;6.50;99.90;;;;;;7375807;19;20022;-71
2023/02/20 01:35:02;;;;;;;14.00;11.02;;;6.40;99.90;;;;;;7371786;19;20138;-72
2023/02/20 01:37:28;;;;;;;18.80;11.63;;;6.50;99.90;;;;;;7375112;19;20022;-71
2023/02/20 01:39:55;;;;;;;15.63;10.27;;;6.40;99.90;;;;;;7374713;19;20065;-71
2023/02/20 01:42:23;;;;;;;14.70;10.48;;;6.50;99.90;;;;;;7369710;19;20094;-71
2023/02/20 01:44:55;;;;;;;13.95;10.70;;;6.50;99.90;;;;;;7374242;19;20026;-72
2023/02/20 01:47:23;;;;;;;15.25;10.35;;;6.50;99.90;;;;;;7374855;19;20022;-71
2023/02/20 01:50:02;;;;;;;16.23;11.05;;;6.60;99.90;;;;;;7374303;19;20014;-71
2023/02/20 01:52:49;;;;;;;16.80;11.75;;;6.60;99.90;;;;;;7375892;19;20077;-71
2023/02/20 01:55:21;;;;;;;16.80;11.00;;;6.70;99.90;;;;;;7370540;19;20052;-71
2023/02/20 01:57:54;;;;;;;;;;;6.70;99.90;;;;;;7372620;19;20506;-72
2023/02/20 02:00:23;;;;;;;17.35;10.93;;;6.80;99.90;;;;;;7373196;19;19918;-71
2023/02/20 02:03:03;;;;;;;17.90;10.73;;;6.80;99.90;;;;;;7373198;19;20023;-72
2023/02/20 02:05:42;;;;;;;16.52;10.95;;;6.90;99.90;;;;;;7370613;19;20078;-72
2023/02/20 02:08:13;;;;;;;19.40;11.13;;;6.80;99.90;;;;;;7371179;19;20023;-74
2023/02/20 02:11:03;;;;;;;18.83;12.47;;;6.90;99.90;;;;;;7373628;19;20024;-74
2023/02/20 02:13:31;;;;;;;15.68;11.73;;;7.00;99.90;;;;;;7373916;19;20259;-74
2023/02/20 02:16:16;;;;;;;17.70;10.75;;;7.00;99.90;;;;;;7372963;19;20034;-74
2023/02/20 02:19:20;;;;;;;15.60;11.52;;;7.00;99.90;;;;;;7375535;19;20045;-74
2023/02/20 02:21:55;;;;;;;15.60;11.23;;;7.10;99.90;;;;;;7375902;19;20026;-74
2023/02/20 02:24:38;;;;;;;16.55;11.27;;;7.10;99.90;;;;;;7369059;19;20018;-74
2023/02/20 02:27:26;;;;;;;18.75;12.38;;;7.10;99.90;;;;;;7368481;19;20038;-74
2023/02/20 02:30:32;;;;;;;22.98;12.55;;;7.10;99.90;;;;;;7369454;19;20018;-74
2023/02/20 02:33:13;;;;;;;20.65;13.13;;;7.10;99.90;;;;;;7370428;19;20021;-74
2023/02/20 02:36:15;;;;;;;19.98;13.60;;;7.10;99.90;;;;;;7372698;19;20094;-71
2023/02/20 02:38:56;;;;;;;17.45;12.13;;;7.10;99.90;;;;;;7370821;19;20023;-71
2023/02/20 02:41:48;;;;;;;20.80;12.63;;;7.20;99.90;;;;;;7374391;19;20486;-72
2023/02/20 02:44:24;;;;;;;23.33;14.15;;;7.20;99.90;;;;;;7371955;19;20058;-71
2023/02/20 02:47:29;;;;;;;20.35;13.02;;;7.10;99.90;;;;;;7367841;19;20078;-71
2023/02/20 02:50:11;;;;;;;24.25;13.80;;;7.10;99.90;;;;;;7373744;19;20545;-71
2023/02/20 02:52:47;;;;;;;18.63;13.75;;;7.10;99.90;;;;;;7373841;19;20407;-71
2023/02/20 02:55:20;;;;;;;20.25;14.55;;;7.10;99.90;;;;;;7368552;19;20498;-71
2023/02/20 02:57:47;;;;;;;23.60;15.48;;;7.10;99.90;;;;;;7369019;19;20604;-71
2023/02/20 03:00:17;;;;;;;21.10;13.50;;;7.10;99.90;;;;;;7370449;19;20018;-74
2023/02/20 03:03:17;;;;;;;21.27;15.18;;;7.10;99.90;;;;;;7369350;19;20014;-72
2023/02/20 03:05:51;;;;;;;19.55;14.73;;;7.10;99.90;;;;;;7369624;19;20018;-72
2023/02/20 03:08:38;;;;;;;22.45;15.40;;;7.10;99.90;;;;;;7370358;19;20048;-72
2023/02/20 03:11:11;;;;;;;21.77;16.23;;;7.00;99.90;;;;;;7377944;19;20367;-72
2023/02/20 03:17:15;;;;;;;22.23;15.98;;;7.00;99.90;;;;;;7379300;19;20044;-75
2023/02/20 03:19:49;;;;;;;24.95;16.08;;;7.00;99.90;;;;;;7381792;19;20029;-75
2023/02/20 03:22:26;;;;;;;24.60;16.48;;;7.00;99.90;;;;;;7376822;19;20454;-75
2023/02/20 03:24:59;;;;;;;23.48;17.02;;;6.90;99.90;;;;;;7379402;19;20089;-74
2023/02/20 03:27:45;;;;;;;23.73;16.55;;;6.90;99.90;;;;;;7378056;19;20030;-73
2023/02/20 03:30:40;;;;;;;24.70;15.85;;;6.90;99.90;;;;;;7379083;19;20074;-74
2023/02/20 03:44:37;;;;;;;26.95;18.38;;;6.80;99.90;;;;;;7376319;19;20015;-72
2023/02/20 03:47:08;;;;;;;26.50;18.63;;;6.80;99.90;;;;;;7376612;19;20010;-72
2023/02/20 03:52:24;;;;;;;35.03;19.25;;;6.80;99.90;;;;;;7375573;19;20019;-72
2023/02/20 03:54:51;;;;;;;31.27;18.92;;;6.80;99.90;;;;;;7379602;19;20018;-72
2023/02/20 03:57:26;;;;;;;27.88;19.85;;;6.90;99.90;;;;;;7371269;19;20577;-72
2023/02/20 04:00:15;;;;;;;29.98;20.05;;;6.90;99.90;;;;;;7375316;19;20023;-72
2023/02/20 04:02:44;;;;;;;26.63;20.25;;;6.90;99.90;;;;;;7379400;19;20025;-72
2023/02/20 04:05:25;;;;;;;28.50;20.40;;;6.90;99.90;;;;;;7371423;19;20382;-72
2023/02/20 04:08:05;;;;;;;28.48;20.15;;;6.90;99.90;;;;;;7378517;19;20780;-72
2023/02/20 04:10:39;;;;;;;33.95;22.80;;;6.90;99.90;;;;;;7378791;19;20369;-72
2023/02/20 04:13:07;;;;;;;36.03;23.05;;;6.90;99.90;;;;;;7373016;19;20753;-72
2023/02/20 04:15:34;;;;;;;33.30;22.90;;;6.90;99.90;;;;;;7377294;19;20051;-75
2023/02/20 04:18:13;;;;;;;36.80;26.25;;;6.90;99.90;;;;;;7376967;19;20025;-75
2023/02/20 04:20:40;;;;;;;36.13;24.85;;;6.90;99.90;;;;;;7376629;19;20485;-73
2023/02/20 04:23:37;;;;;;;37.20;25.55;;;6.90;99.90;;;;;;7372126;19;20037;-72
2023/02/20 04:26:18;;;;;;;38.03;27.92;;;7.00;99.90;;;;;;7375139;19;20078;-72
2023/02/20 04:28:47;;;;;;;39.47;27.17;;;6.90;99.90;;;;;;7376511;19;20022;-72
2023/02/20 04:31:17;;;;;;;37.53;26.42;;;7.00;99.90;;;;;;7372837;19;20037;-72
2023/02/20 04:33:43;;;;;;;43.65;27.42;;;7.00;99.90;;;;;;7378472;19;20018;-72
2023/02/20 04:36:15;;;;;;;37.92;27.98;;;7.00;99.90;;;;;;7374254;19;20386;-72
2023/02/20 04:38:41;;;;;;;41.72;28.55;;;7.00;99.90;;;;;;7378300;19;20026;-72
2023/02/20 04:41:12;;;;;;;48.97;29.65;;;7.00;99.90;;;;;;7373277;19;20018;-72
2023/02/20 04:43:39;;;;;;;43.72;30.77;;;7.00;99.90;;;;;;7373052;19;20018;-72
2023/02/20 04:46:06;;;;;;;44.05;28.25;;;7.00;99.90;;;;;;7375250;19;20022;-72
2023/02/20 04:48:34;;;;;;;43.22;29.42;;;7.00;99.90;;;;;;7373763;19;20029;-75
2023/02/20 04:51:02;;;;;;;49.85;31.73;;;7.10;99.90;;;;;;7379405;19;20022;-72
2023/02/20 04:53:28;;;;;;;50.47;30.83;;;7.10;99.90;;;;;;7375599;19;20022;-71
2023/02/20 04:55:55;;;;;;;47.08;31.92;;;7.10;99.90;;;;;;7375575;19;20033;-72
2023/02/20 04:58:26;;;;;;;43.85;29.45;;;7.10;99.90;;;;;;7372832;19;21488;-71
2023/02/20 05:01:03;;;;;;;51.70;30.52;;;7.20;99.90;;;;;;7375126;19;20026;-72
2023/02/20 05:03:29;;;;;;;44.97;29.50;;;7.20;99.90;;;;;;7370042;19;20024;-72
2023/02/20 05:05:56;;;;;;;50.72;30.90;;;7.30;99.90;;;;;;7375800;19;20014;-73
2023/02/20 05:08:22;;;;;;;43.95;29.80;;;7.30;99.90;;;;;;7374508;19;20026;-72
2023/02/20 05:10:48;;;;;;;52.95;32.78;;;7.30;99.90;;;;;;7372394;19;20058;-72
2023/02/20 05:13:15;;;;;;;54.45;32.40;;;7.40;99.90;;;;;;7373419;19;20432;-75
2023/02/20 05:15:41;;;;;;;45.15;32.63;;;7.40;99.90;;;;;;7370598;19;20018;-75
2023/02/20 05:18:08;;;;;;;55.47;32.28;;;7.50;99.90;;;;;;7373547;19;20485;-75
2023/02/20 05:23:19;;;;;;;45.08;31.20;;;7.50;99.90;;;;;;7373793;19;20022;-75
2023/02/20 05:25:45;;;;;;;48.20;30.60;;;7.50;99.90;;;;;;7373297;19;20026;-75
2023/02/20 05:28:11;;;;;;;47.95;32.20;;;7.60;99.90;;;;;;7370006;19;20105;-74
2023/02/20 05:30:38;;;;;;;47.67;31.05;;;7.60;99.90;;;;;;7364351;19;20030;-75
2023/02/20 05:33:04;;;;;;;44.13;29.58;;;7.60;99.90;;;;;;7367162;19;20027;-75
2023/02/20 05:35:31;;;;;;;49.03;30.20;;;7.50;99.90;;;;;;7368581;19;20513;-72
2023/02/20 05:37:58;;;;;;;45.83;30.30;;;7.60;99.90;;;;;;7370037;19;20696;-72
2023/02/20 05:40:29;;;;;;;38.80;27.70;;;7.60;99.90;;;;;;7365953;19;20018;-75
2023/02/20 05:42:55;;;;;;;42.33;28.17;;;7.60;99.90;;;;;;7367591;19;20018;-74
2023/02/20 05:45:22;;;;;;;43.85;28.67;;;7.60;99.90;;;;;;7368521;19;20019;-73
2023/02/20 05:47:48;;;;;;;42.45;28.17;;;7.70;99.90;;;;;;7359802;19;20023;-73
2023/02/20 05:50:15;;;;;;;49.00;27.92;;;7.70;99.90;;;;;;7361646;19;21656;-73
2023/02/20 05:52:43;;;;;;;48.88;29.23;;;7.70;99.90;;;;;;7364249;19;20019;-73
2023/02/20 05:55:11;;;;;;;42.95;28.75;;;7.70;99.90;;;;;;7363349;19;20493;-73
2023/02/20 05:57:37;;;;;;;45.67;28.95;;;7.70;99.90;;;;;;7363040;19;20117;-73
2023/02/20 06:00:04;;;;;;;43.28;26.73;;;7.70;99.90;;;;;;7368473;19;20484;-75
2023/02/20 06:02:40;;;;;;;46.10;28.17;;;7.70;99.90;;;;;;7363739;19;20022;-75
2023/02/20 06:05:07;;;;;;;42.35;27.73;;;7.70;99.90;;;;;;7365539;19;20020;-73
2023/02/20 06:07:34;;;;;;;40.08;26.98;;;7.80;99.90;;;;;;7360862;19;20018;-72
2023/02/20 06:10:04;;;;;;;41.28;28.70;;;7.80;99.90;;;;;;7355108;19;20678;-72
2023/02/20 06:12:30;;;;;;;45.92;27.92;;;7.80;99.90;;;;;;7364997;19;20053;-75
2023/02/20 06:14:57;;;;;;;37.67;27.73;;;7.80;99.90;;;;;;7364138;19;20014;-73
2023/02/20 06:17:24;;;;;;;44.38;28.80;;;7.80;99.90;;;;;;7369123;19;20018;-72
2023/02/20 06:19:50;;;;;;;43.08;28.95;;;7.80;99.90;;;;;;7365251;19;20595;-72
2023/02/20 06:22:20;;;;;;;43.60;26.77;;;7.80;99.90;;;;;;7367042;19;20260;-71
2023/02/20 06:24:47;;;;;;;38.13;25.95;;;7.90;99.90;;;;;;7368883;19;20029;-72
2023/02/20 06:27:15;;;;;;;43.03;26.73;;;7.90;99.90;;;;;;7368338;19;20848;-72
2023/02/20 06:29:42;;;;;;;42.85;24.92;;;7.80;99.90;;;;;;7367716;19;20011;-71
2023/02/20 06:32:08;;;;;;;37.58;24.80;;;7.90;99.90;;;;;;7366710;19;20025;-72
2023/02/20 06:34:35;;;;;;;32.00;23.27;;;7.90;99.90;;;;;;7365196;19;20015;-72
2023/02/20 06:37:03;;;;;;;40.28;23.58;;;7.90;99.90;;;;;;7367253;19;20018;-72
2023/02/20 06:39:31;;;;;;;38.95;23.00;;;7.90;99.90;;;;;;7367178;19;20060;-73
2023/02/20 06:41:57;;;;;;;37.92;22.33;;;8.00;99.90;;;;;;7363177;19;20588;-72
2023/02/20 06:44:24;;;;;;;32.45;23.33;;;7.90;99.90;;;;;;7364669;19;20022;-72
2023/02/20 06:46:53;;;;;;;34.55;21.95;;;8.00;99.90;;;;;;7370351;19;20486;-71
2023/02/20 06:49:19;;;;;;;32.78;21.83;;;8.00;99.90;;;;;;7367658;19;20017;-72
2023/02/20 06:51:45;;;;;;;32.50;21.15;;;8.00;99.90;;;;;;7365847;19;20716;-72
2023/02/20 06:54:13;;;;;;;33.60;21.52;;;8.00;99.90;;;;;;7368395;19;20485;-72
2023/02/20 06:56:39;;;;;;;37.38;22.25;;;8.00;99.90;;;;;;7363990;19;20746;-71
2023/02/20 06:59:07;;;;;;;37.97;20.77;;;8.00;99.90;;;;;;7368810;19;20506;-76
2023/02/20 07:01:39;;;;;;;36.65;20.48;;;8.00;99.90;;;;;;7367722;19;20098;-72
2023/02/20 07:04:06;;;;;;;37.67;21.25;;;8.10;99.90;;;;;;7368349;19;20022;-72
2023/02/20 07:06:33;;;;;;;34.17;20.50;;;8.00;99.90;;;;;;7366667;19;20030;-71
2023/02/20 07:09:00;;;;;;;32.97;18.67;;;8.00;99.90;;;;;;7367251;19;20485;-71
2023/02/20 07:11:26;;;;;;;31.15;18.42;;;8.10;99.90;;;;;;7366907;19;20031;-72
2023/02/20 07:13:52;;;;;;;35.75;18.92;;;8.10;99.90;;;;;;7364970;19;20022;-71
2023/02/20 07:16:19;;;;;;;29.33;17.98;;;8.10;99.90;;;;;;7365646;19;20015;-72
2023/02/20 07:19:02;;;;;;;31.95;16.75;;;8.20;99.90;;;;;;7367411;19;20014;-72
2023/02/20 07:21:32;;;;;;;26.98;18.52;;;8.20;99.90;;;;;;7361929;19;20026;-73
2023/02/20 07:23:58;;;;;;;26.75;16.45;;;8.20;99.90;;;;;;7363233;19;20022;-71
2023/02/20 07:26:31;;;;;;;27.50;16.55;;;8.20;99.90;;;;;;7367432;19;20077;-72
2023/02/20 07:28:57;;;;;;;27.65;16.20;;;8.20;99.90;;;;;;7368726;19;20014;-72
2023/02/20 07:31:28;;;;;;;28.38;17.27;;;8.20;99.90;;;;;;7363742;19;20007;-70
2023/02/20 07:33:54;;;;;;;31.85;17.55;;;8.20;99.90;;;;;;7364130;19;20844;-70
2023/02/20 07:36:21;;;;;;;25.75;15.30;;;8.30;99.90;;;;;;7362463;19;20019;-70
2023/02/20 07:38:59;;;;;;;25.88;15.95;;;8.30;99.90;;;;;;7364904;19;20040;-71
2023/02/20 07:41:31;;;;;;;26.55;15.75;;;8.30;99.90;;;;;;7364247;19;20324;-71
2023/02/20 07:43:58;;;;;;;27.02;15.82;;;8.30;99.90;;;;;;7357531;19;20018;-72
2023/02/20 07:46:27;;;;;;;34.92;15.63;;;8.30;99.90;;;;;;7365111;19;20021;-72
2023/02/20 07:48:53;;;;;;;24.73;15.13;;;8.40;99.90;;;;;;7364232;19;20021;-71
2023/02/20 07:51:20;;;;;;;28.60;14.95;;;8.40;99.90;;;;;;7363627;19;20923;-71
2023/02/20 07:53:48;;;;;;;31.98;14.77;;;8.40;99.90;;;;;;7367675;19;20661;-71
2023/02/20 07:56:16;;;;;;;31.67;15.10;;;8.40;99.90;;;;;;7368659;19;20019;-76
2023/02/20 07:58:43;;;;;;;24.05;14.73;;;8.40;99.90;;;;;;7372518;19;20024;-72
2023/02/20 08:01:09;;;;;;;18.52;13.23;;;8.40;99.90;;;;;;7367812;19;21098;-74
2023/02/20 08:03:35;;;;;;;24.45;12.77;;;8.50;99.90;;;;;;7373553;19;20053;-71
2023/02/20 08:06:02;;;;;;;22.38;13.95;;;8.50;99.90;;;;;;7371088;19;20022;-74
2023/02/20 08:08:29;;;;;;;22.35;13.93;;;8.50;99.90;;;;;;7368698;19;20087;-71
2023/02/20 08:10:56;;;;;;;20.55;13.23;;;8.50;99.90;;;;;;7361454;19;20893;-71
2023/02/20 08:13:22;;;;;;;21.92;12.40;;;8.60;99.90;;;;;;7370263;19;20014;-71
2023/02/20 08:15:49;;;;;;;24.15;13.65;;;8.60;99.90;;;;;;7370419;19;20019;-71
2023/02/20 08:18:16;;;;;;;21.98;12.77;;;8.60;99.90;;;;;;7364340;19;20026;-71
2023/02/20 08:20:43;;;;;;;18.88;11.85;;;8.50;99.90;;;;;;7364425;19;20654;-71
2023/02/20 08:23:20;;;;;;;21.67;11.98;;;8.60;99.90;;;;;;7368241;19;21301;-71
2023/02/20 08:25:47;;;;;;;19.85;11.38;;;8.60;99.90;;;;;;7370287;19;20021;-71
2023/02/20 08:28:14;;;;;;;20.33;12.30;;;8.60;99.90;;;;;;7363308;19;20018;-71
2023/02/20 08:30:40;;;;;;;20.17;10.85;;;8.60;99.90;;;;;;7369233;19;20853;-71
2023/02/20 08:33:06;;;;;;;22.83;11.75;;;8.60;99.90;;;;;;7368755;19;20122;-72
2023/02/20 08:35:33;;;;;;;26.17;11.02;;;8.60;99.90;;;;;;7368560;19;20029;-72
2023/02/20 08:38:01;;;;;;;22.90;12.02;;;8.60;99.90;;;;;;7370747;19;20763;-69
2023/02/20 08:40:28;;;;;;;22.65;11.52;;;8.60;99.90;;;;;;7368213;19;20023;-70
2023/02/20 08:42:54;;;;;;;27.55;11.85;;;8.60;99.90;;;;;;7371379;19;20019;-76
2023/02/20 08:45:21;;;;;;;22.25;10.88;;;8.60;99.90;;;;;;7366571;19;20026;-75
2023/02/20 08:47:48;;;;;;;21.25;10.90;;;8.70;99.90;;;;;;7370944;19;20022;-75
2023/02/20 08:50:16;;;;;;;20.08;11.18;;;8.60;99.90;;;;;;7369809;19;20033;-75
2023/02/20 08:52:43;;;;;;;25.88;11.40;;;8.60;99.90;;;;;;7369115;19;20019;-76
2023/02/20 08:55:12;;;;;;;21.60;11.32;;;8.70;99.90;;;;;;7369412;19;20407;-74
2023/02/20 08:57:43;;;;;;;22.98;11.52;;;8.70;99.90;;;;;;7368887;19;20026;-71
2023/02/20 09:00:17;;;;;;;19.65;10.38;;;8.70;99.90;;;;;;7370254;19;20019;-70
2023/02/20 09:02:46;;;;;;;22.00;11.10;;;8.70;99.90;;;;;;7364625;19;20022;-68
2023/02/20 09:05:14;;;;;;;24.20;11.23;;;8.70;99.90;;;;;;7368283;19;20019;-68
2023/02/20 09:07:40;;;;;;;21.98;11.48;;;8.70;99.90;;;;;;7367262;19;20022;-69
2023/02/20 09:10:08;;;;;;;23.05;11.50;;;8.70;99.90;;;;;;7363742;19;20022;-70
2023/02/20 09:12:34;;;;;;;25.77;12.63;;;8.70;99.90;;;;;;7367756;19;21043;-76
2023/02/20 09:15:01;;;;;;;22.02;12.73;;;8.70;99.90;;;;;;7364453;19;20018;-74
2023/02/20 09:17:28;;;;;;;23.27;11.10;;;8.80;99.90;;;;;;7365501;19;20082;-76
2023/02/20 09:19:55;;;;;;;27.23;12.55;;;8.80;99.90;;;;;;7364507;19;20025;-70
2023/02/20 09:22:25;;;;;;;20.15;10.65;;;8.80;99.90;;;;;;7360103;19;20878;-69
2023/02/20 09:24:53;;;;;;;22.05;10.93;;;8.80;99.90;;;;;;7368220;19;20021;-71
2023/02/20 09:27:20;;;;;;;17.45;9.20;;;8.90;99.90;;;;;;7368947;19;20480;-70
2023/02/20 09:29:46;;;;;;;21.80;11.27;;;8.90;99.90;;;;;;7368184;19;20022;-70
2023/02/20 09:32:13;;;;;;;21.50;10.70;;;8.90;99.90;;;;;;7368329;19;20018;-70
2023/02/20 09:34:40;;;;;;;24.42;11.57;;;8.90;99.90;;;;;;7368549;19;20011;-68
2023/02/20 09:37:07;;;;;;;17.17;9.90;;;9.00;99.90;;;;;;7362922;19;20033;-70
2023/02/20 09:39:33;;;;;;;21.55;10.82;;;9.00;99.90;;;;;;7361220;19;21038;-70
2023/02/20 09:42:05;;;;;;;19.00;10.43;;;9.00;99.90;;;;;;7364996;19;20018;-69
2023/02/20 09:44:45;;;;;;;;;;;9.00;99.90;;;;;;7360509;19;20014;-68
2023/02/20 09:47:53;;;;;;;23.20;11.93;;;9.00;99.90;;;;;;7367905;19;19934;-69
2023/02/20 09:50:41;;;;;;;22.63;12.15;;;9.00;99.90;;;;;;7369513;19;20015;-69
2023/02/20 09:53:10;;;;;;;24.02;11.73;;;9.00;99.90;;;;;;7368855;19;20097;-68
2023/02/20 09:55:39;;;;;;;24.88;12.65;;;9.00;99.90;;;;;;7366207;19;20359;-68
2023/02/20 09:58:11;;;;;;;18.33;10.23;;;9.00;99.90;;;;;;7365321;19;20780;-69
2023/02/20 10:00:38;;;;;;;20.67;11.93;;;9.00;99.90;;;;;;7360985;19;20063;-68
2023/02/20 10:03:17;;;;;;;18.60;11.80;;;9.00;99.90;;;;;;7370991;19;20298;-71
2023/02/20 10:05:44;;;;;;;20.08;12.32;;;8.90;99.90;;;;;;7377407;19;20394;-71
2023/02/20 10:08:17;;;;;;;23.45;11.88;;;9.00;99.90;;;;;;7374361;19;20039;-72
2023/02/20 10:10:43;;;;;;;23.17;12.07;;;9.00;99.90;;;;;;7367929;19;20018;-72
2023/02/20 10:13:45;;;;;;;20.50;11.30;;;9.00;99.90;;;;;;7364998;19;20026;-71
2023/02/20 10:16:38;;;;;;;18.83;12.10;;;9.00;99.90;;;;;;7363447;19;20054;-73
2023/02/20 10:19:22;;;;;;;15.40;11.73;;;9.00;99.90;;;;;;7366110;19;20018;-73
2023/02/20 10:22:13;;;;;;;20.73;12.32;;;9.00;99.90;;;;;;7368996;19;20010;-73
2023/02/20 10:24:45;;;;;;;20.67;12.27;;;9.00;99.90;;;;;;7365392;19;20037;-73
2023/02/20 10:27:32;;;;;;;23.80;11.75;;;9.00;99.90;;;;;;7367337;19;20022;-73
2023/02/20 10:30:01;;;;;;;21.67;10.95;;;9.00;99.90;;;;;;7364472;19;20098;-73
2023/02/20 10:32:49;;;;;;;18.42;11.02;;;9.00;99.90;;;;;;7364856;19;20025;-73
2023/02/20 10:35:25;;;;;;;18.88;10.90;;;9.10;99.90;;;;;;7367527;19;20397;-73
2023/02/20 10:37:57;;;;;;;16.10;10.45;;;9.10;99.90;;;;;;7363960;19;20055;-71
2023/02/20 10:40:35;;;;;;;20.67;11.77;;;9.10;99.90;;;;;;7363379;19;20390;-73
2023/02/20 10:43:04;;;;;;;23.52;10.48;;;9.10;99.90;;;;;;7362724;19;20030;-72
2023/02/20 10:46:00;;;;;;;19.25;11.48;;;9.10;99.90;;;;;;7365205;19;20784;-73
2023/02/20 10:48:30;;;;;;;19.52;10.40;;;9.10;99.90;;;;;;7364184;19;20102;-73
2023/02/20 10:51:18;;;;;;;16.20;10.25;;;9.10;99.90;;;;;;7369590;19;20018;-73
2023/02/20 10:53:56;;;;;;;17.75;9.27;;;9.10;99.90;;;;;;7366070;19;20022;-72
2023/02/20 10:56:48;;;;;;;19.55;10.43;;;9.20;99.90;;;;;;7365154;19;20018;-73
2023/02/20 10:59:23;;;;;;;13.05;9.10;;;9.20;99.90;;;;;;7385353;19;20032;-76
2023/02/20 11:01:55;;;;;;;16.42;9.60;;;9.20;99.90;;;;;;7364820;19;20129;-67
2023/02/20 11:04:27;;;;;;;18.70;10.38;;;9.30;99.90;;;;;;7363469;19;20069;-65
2023/02/20 11:06:56;;;;;;;;;;;9.30;99.90;;;;;;7364624;19;20019;-64
2023/02/20 11:09:24;;;;;;;17.75;9.80;;;9.30;99.90;;;;;;7366117;19;19927;-65
2023/02/20 11:11:53;;;;;;;21.67;10.63;;;9.30;99.90;;;;;;7368315;19;20014;-65
2023/02/20 11:14:47;;;;;;;21.45;9.25;;;9.40;99.90;;;;;;7366577;19;20900;-65
2023/02/20 11:17:25;;;;;;;17.92;8.90;;;9.40;99.90;;;;;;7368390;19;20047;-65
2023/02/20 11:19:58;;;;;;;15.23;9.18;;;9.40;99.90;;;;;;7369975;19;20014;-65
2023/02/20 11:22:45;;;;;;;16.10;8.73;;;9.40;99.90;;;;;;7365524;19;20113;-65
2023/02/20 11:25:19;;;;;;;22.42;10.15;;;9.40;99.90;;;;;;7370657;19;20612;-66
2023/02/20 11:27:50;;;;;;;18.50;9.32;;;9.50;99.90;;;;;;7368852;19;20022;-65
2023/02/20 11:30:29;;;;;;;22.02;8.77;;;9.50;99.90;;;;;;7371636;19;20018;-65
2023/02/20 11:33:22;;;;;;;15.55;8.85;;;9.50;99.90;;;;;;7377100;19;20102;-65
2023/02/20 11:35:52;;;;;;;14.50;8.70;;;9.60;99.90;;;;;;7375034;19;20793;-65
2023/02/20 11:38:29;;;;;;;15.20;9.40;;;9.60;99.90;;;;;;7373342;19;20485;-66
2023/02/20 11:41:02;;;;;;;14.02;8.23;;;9.50;99.90;;;;;;7376711;19;20059;-65
2023/02/20 11:43:33;;;;;;;15.10;8.95;;;9.60;99.90;;;;;;7379434;19;20053;-65
2023/02/20 11:46:12;;;;;;;20.45;8.85;;;9.50;99.90;;;;;;7374754;19;20026;-65
2023/02/20 11:49:01;;;;;;;17.88;9.98;;;9.60;99.90;;;;;;7376336;19;20397;-65
2023/02/20 11:51:45;;;;;;;15.50;7.90;;;9.50;99.90;;;;;;7374409;19;20503;-65
2023/02/20 11:54:14;;;;;;;15.85;9.13;;;9.60;99.90;;;;;;7375136;19;20062;-64
2023/02/20 11:56:55;;;;;;;11.85;7.80;;;9.60;99.90;;;;;;7376756;19;20016;-65
2023/02/20 11:59:37;;;;;;;20.52;8.93;;;9.60;99.90;;;;;;7375424;19;20030;-65
2023/02/20 12:02:25;;;;;;;19.33;8.98;;;9.60;99.90;;;;;;7376525;19;20017;-64
2023/02/20 12:05:08;;;;;;;17.02;8.32;;;9.60;99.90;;;;;;7371131;19;20022;-65
2023/02/20 12:07:37;;;;;;;10.10;8.35;;;9.60;99.90;;;;;;7374239;19;20468;-64
2023/02/20 12:10:26;;;;;;;15.10;8.75;;;9.60;99.90;;;;;;7375038;19;20026;-65
2023/02/20 12:12:53;;;;;;;18.52;9.30;;;9.60;99.90;;;;;;7372712;19;20046;-65
2023/02/20 12:15:23;;;;;;;13.95;8.00;;;9.60;99.90;;;;;;7373677;19;20523;-65
2023/02/20 12:18:13;;;;;;;17.95;9.10;;;9.60;99.90;;;;;;7371606;19;20018;-65
2023/02/20 12:20:47;;;;;;;21.45;9.27;;;9.60;99.90;;;;;;7370512;19;20041;-65
2023/02/20 12:23:44;;;;;;;17.65;9.10;;;9.60;99.90;;;;;;7373801;19;20010;-65
2023/02/20 12:26:32;;;;;;;16.45;9.43;;;9.60;99.90;;;;;;7372580;19;20025;-64
2023/02/20 12:29:30;;;;;;;19.23;9.32;;;9.60;99.90;;;;;;7376400;19;20021;-64
2023/02/20 12:32:05;;;;;;;18.98;9.20;;;9.60;99.90;;;;;;7372543;19;20477;-66
2023/02/20 12:35:16;;;;;;;24.00;9.80;;;9.60;99.90;;;;;;7370441;19;20090;-65
2023/02/20 12:38:07;;;;;;;16.58;9.32;;;9.60;99.90;;;;;;7372988;19;20019;-65
2023/02/20 12:41:02;;;;;;;18.25;9.80;;;9.60;99.90;;;;;;7370092;19;20126;-64
2023/02/20 12:43:54;;;;;;;17.00;8.85;;;9.60;99.90;;;;;;7369890;19;20018;-65
2023/02/20 12:46:31;;;;;;;18.08;9.82;;;9.60;99.90;;;;;;7369724;19;20035;-65
2023/02/20 12:49:21;;;;;;;18.35;9.25;;;9.60;99.90;;;;;;7372094;19;20766;-64
2023/02/20 12:51:57;;;;;;;15.43;9.10;;;9.60;99.90;;;;;;7367969;19;20022;-64
2023/02/20 12:54:32;;;;;;;16.90;11.27;;;9.60;99.90;;;;;;7372308;19;20018;-65
2023/02/20 12:57:21;;;;;;;18.13;9.23;;;9.70;99.90;;;;;;7370243;19;20019;-64
2023/02/20 13:00:01;;;;;;;18.52;9.73;;;9.70;99.90;;;;;;7371836;19;20595;-65
2023/02/20 13:02:35;;;;;;;15.32;9.13;;;9.70;99.90;;;;;;7371588;19;20018;-64
2023/02/20 13:05:08;;;;;;;15.98;9.05;;;9.70;99.90;;;;;;7372734;19;20063;-64
2023/02/20 13:07:39;;;;;;;21.25;10.10;;;9.70;99.90;;;;;;7369267;19;20031;-65
2023/02/20 13:10:10;;;;;;;;;;;9.80;99.90;;;;;;7372198;19;20615;-64
2023/02/20 13:12:36;;;;;;;17.90;9.13;;;9.80;99.90;;;;;;7367890;19;19927;-64
2023/02/20 13:15:21;;;;;;;17.20;9.40;;;9.70;99.90;;;;;;7370525;19;20497;-63
2023/02/20 13:18:16;;;;;;;19.60;9.50;;;9.70;99.90;;;;;;7370604;19;20761;-64
2023/02/20 13:20:50;;;;;;;17.15;8.77;;;9.70;99.90;;;;;;7370504;19;20019;-64
2023/02/20 13:23:17;;;;;;;21.15;10.63;;;9.70;99.90;;;;;;7367501;19;20015;-63
2023/02/20 13:25:52;;;;;;;20.27;11.00;;;9.70;99.90;;;;;;7369602;19;20030;-64
2023/02/20 13:28:44;;;;;;;20.17;9.75;;;9.70;99.90;;;;;;7370366;19;20015;-64
2023/02/20 13:31:14;;;;;;;17.90;10.18;;;9.70;99.90;;;;;;7370780;19;20034;-63